sensor_id;sensor_type;location;lat;lon;timestamp;temperature;humidity
68139;DHT22;54940;50.842;4.410;2023-04-15T00:00:12;11.60;99.90
68139;DHT22;54940;50.842;4.410;2023-04-15T00:02:38;11.60;99.90
68139;DHT22;54940;50.842;4.410;2023-04-15T00:05:04;11.60;99.90
68139;DHT22;54940;50.842;4.410;2023-04-15T00:07:30;11.60;99.90
68139;DHT22;54940;50.842;4.410;2023-04-15T00:09:56;11.50;99.90
68139;DHT22;54940;50.842;4.410;2023-04-15T00:12:23;11.40;99.90
68139;DHT22;54940;50.842;4.410;2023-04-15T00:14:49;11.40;99.90
68139;DHT22;54940;50.842;4.410;2023-04-15T00:17:15;11.40;99.90
68139;DHT22;54940;50.842;4.410;2023-04-15T00:19:41;11.50;99.90
68139;DHT22;54940;50.842;4.410;2023-04-15T00:22:10;11.50;99.90
68139;DHT22;54940;50.842;4.410;2023-04-15T00:24:36;11.60;99.90
68139;DHT22;54940;50.842;4.410;2023-04-15T00:27:02;11.60;99.90
68139;DHT22;54940;50.842;4.410;2023-04-15T00:29:29;11.50;99.90
68139;DHT22;54940;50.842;4.410;2023-04-15T00:31:54;11.50;99.90
68139;DHT22;54940;50.842;4.410;2023-04-15T00:34:21;11.50;99.90
68139;DHT22;54940;50.842;4.410;2023-04-15T00:36:47;11.50;99.90
68139;DHT22;54940;50.842;4.410;2023-04-15T00:39:13;11.40;99.90
68139;DHT22;54940;50.842;4.410;2023-04-15T00:41:39;11.40;99.90
68139;DHT22;54940;50.842;4.410;2023-04-15T00:44:05;11.30;99.90
68139;DHT22;54940;50.842;4.410;2023-04-15T00:46:33;11.40;99.90
68139;DHT22;54940;50.842;4.410;2023-04-15T00:49:00;11.30;99.90
68139;DHT22;54940;50.842;4.410;2023-04-15T00:51:27;11.30;99.90
68139;DHT22;54940;50.842;4.410;2023-04-15T00:53:52;11.20;99.90
68139;DHT22;54940;50.842;4.410;2023-04-15T00:56:19;11.30;99.90
68139;DHT22;54940;50.842;4.410;2023-04-15T00:58:46;11.30;99.90
68139;DHT22;54940;50.842;4.410;2023-04-15T01:01:12;11.20;99.90
68139;DHT22;54940;50.842;4.410;2023-04-15T01:03:38;11.30;99.90
68139;DHT22;54940;50.842;4.410;2023-04-15T01:06:04;11.30;99.90
68139;DHT22;54940;50.842;4.410;2023-04-15T01:08:30;11.10;99.90
68139;DHT22;54940;50.842;4.410;2023-04-15T01:10:56;11.20;99.90
68139;DHT22;54940;50.842;4.410;2023-04-15T01:13:23;11.20;99.90
68139;DHT22;54940;50.842;4.410;2023-04-15T01:15:50;11.00;99.90
68139;DHT22;54940;50.842;4.410;2023-04-15T01:18:17;11.00;99.90
68139;DHT22;54940;50.842;4.410;2023-04-15T01:20:43;11.10;99.90
68139;DHT22;54940;50.842;4.410;2023-04-15T01:23:09;11.10;99.90
68139;DHT22;54940;50.842;4.410;2023-04-15T01:25:34;11.10;99.90
68139;DHT22;54940;50.842;4.410;2023-04-15T01:28:00;11.20;99.90
68139;DHT22;54940;50.842;4.410;2023-04-15T01:30:26;11.20;99.90
68139;DHT22;54940;50.842;4.410;2023-04-15T01:32:52;11.20;99.90
68139;DHT22;54940;50.842;4.410;2023-04-15T01:35:18;11.30;99.90
68139;DHT22;54940;50.842;4.410;2023-04-15T01:37:44;11.20;99.90
68139;DHT22;54940;50.842;4.410;2023-04-15T01:40:10;11.20;99.90
68139;DHT22;54940;50.842;4.410;2023-04-15T01:42:36;11.20;99.90
68139;DHT22;54940;50.842;4.410;2023-04-15T01:45:03;11.20;99.90
68139;DHT22;54940;50.842;4.410;2023-04-15T01:47:28;11.20;99.90
68139;DHT22;54940;50.842;4.410;2023-04-15T01:49:54;11.30;99.90
68139;DHT22;54940;50.842;4.410;2023-04-15T01:52:20;11.10;99.90
68139;DHT22;54940;50.842;4.410;2023-04-15T01:54:45;11.00;99.90
68139;DHT22;54940;50.842;4.410;2023-04-15T01:57:11;10.90;99.90
68139;DHT22;54940;50.842;4.410;2023-04-15T01:59:37;11.00;99.90
68139;DHT22;54940;50.842;4.410;2023-04-15T02:02:03;10.90;99.90
68139;DHT22;54940;50.842;4.410;2023-04-15T02:04:28;10.90;99.90
68139;DHT22;54940;50.842;4.410;2023-04-15T02:06:54;11.00;99.90
68139;DHT22;54940;50.842;4.410;2023-04-15T02:09:20;10.90;99.90
68139;DHT22;54940;50.842;4.410;2023-04-15T02:11:45;10.80;99.90
68139;DHT22;54940;50.842;4.410;2023-04-15T02:14:11;10.70;99.90
68139;DHT22;54940;50.842;4.410;2023-04-15T02:16:37;10.60;99.90
68139;DHT22;54940;50.842;4.410;2023-04-15T02:19:03;10.70;99.90
68139;DHT22;54940;50.842;4.410;2023-04-15T02:21:29;10.70;99.90
68139;DHT22;54940;50.842;4.410;2023-04-15T02:23:55;10.80;99.90
68139;DHT22;54940;50.842;4.410;2023-04-15T02:26:20;10.80;99.90
68139;DHT22;54940;50.842;4.410;2023-04-15T02:28:47;10.90;99.90
68139;DHT22;54940;50.842;4.410;2023-04-15T02:31:13;10.90;99.90
68139;DHT22;54940;50.842;4.410;2023-04-15T02:33:39;10.90;99.90
68139;DHT22;54940;50.842;4.410;2023-04-15T02:36:05;10.90;99.90
68139;DHT22;54940;50.842;4.410;2023-04-15T02:38:31;10.90;99.90
68139;DHT22;54940;50.842;4.410;2023-04-15T02:40:57;10.90;99.90
68139;DHT22;54940;50.842;4.410;2023-04-15T02:43:23;10.90;99.90
68139;DHT22;54940;50.842;4.410;2023-04-15T02:45:48;10.90;99.90
68139;DHT22;54940;50.842;4.410;2023-04-15T02:48:14;10.90;99.90
68139;DHT22;54940;50.842;4.410;2023-04-15T02:50:42;10.80;99.90
68139;DHT22;54940;50.842;4.410;2023-04-15T02:53:07;10.80;99.90
68139;DHT22;54940;50.842;4.410;2023-04-15T02:55:33;10.80;99.90
68139;DHT22;54940;50.842;4.410;2023-04-15T02:57:59;10.80;99.90
68139;DHT22;54940;50.842;4.410;2023-04-15T03:00:25;10.90;99.90
68139;DHT22;54940;50.842;4.410;2023-04-15T03:02:57;10.90;99.90
68139;DHT22;54940;50.842;4.410;2023-04-15T03:05:23;11.00;99.90
68139;DHT22;54940;50.842;4.410;2023-04-15T03:07:50;10.90;99.90
68139;DHT22;54940;50.842;4.410;2023-04-15T03:10:16;10.80;99.90
68139;DHT22;54940;50.842;4.410;2023-04-15T03:12:42;10.90;99.90
68139;DHT22;54940;50.842;4.410;2023-04-15T03:15:08;11.00;99.90
68139;DHT22;54940;50.842;4.410;2023-04-15T03:17:34;11.00;99.90
68139;DHT22;54940;50.842;4.410;2023-04-15T03:20:05;11.10;99.90
68139;DHT22;54940;50.842;4.410;2023-04-15T03:22:32;11.00;99.90
68139;DHT22;54940;50.842;4.410;2023-04-15T03:24:58;11.00;99.90
68139;DHT22;54940;50.842;4.410;2023-04-15T03:27:24;11.00;99.90
68139;DHT22;54940;50.842;4.410;2023-04-15T03:29:50;11.00;99.90
68139;DHT22;54940;50.842;4.410;2023-04-15T03:32:16;11.00;99.90
68139;DHT22;54940;50.842;4.410;2023-04-15T03:34:42;10.90;99.90
68139;DHT22;54940;50.842;4.410;2023-04-15T03:37:08;10.80;99.90
68139;DHT22;54940;50.842;4.410;2023-04-15T03:39:34;10.70;99.90
68139;DHT22;54940;50.842;4.410;2023-04-15T03:42:00;10.80;99.90
68139;DHT22;54940;50.842;4.410;2023-04-15T03:44:26;10.80;99.90
68139;DHT22;54940;50.842;4.410;2023-04-15T03:46:52;10.80;99.90
68139;DHT22;54940;50.842;4.410;2023-04-15T03:49:18;10.90;99.90
68139;DHT22;54940;50.842;4.410;2023-04-15T03:51:44;10.90;99.90
68139;DHT22;54940;50.842;4.410;2023-04-15T03:54:10;10.90;99.90
68139;DHT22;54940;50.842;4.410;2023-04-15T03:56:37;10.90;99.90
68139;DHT22;54940;50.842;4.410;2023-04-15T03:59:03;10.80;99.90
68139;DHT22;54940;50.842;4.410;2023-04-15T04:01:28;10.70;99.90
68139;DHT22;54940;50.842;4.410;2023-04-15T04:03:54;10.50;99.90
68139;DHT22;54940;50.842;4.410;2023-04-15T04:06:20;10.60;99.90
68139;DHT22;54940;50.842;4.410;2023-04-15T04:08:46;10.70;99.90
68139;DHT22;54940;50.842;4.410;2023-04-15T04:11:11;10.80;99.90
68139;DHT22;54940;50.842;4.410;2023-04-15T04:13:37;10.80;99.90
68139;DHT22;54940;50.842;4.410;2023-04-15T04:16:03;10.70;99.90
68139;DHT22;54940;50.842;4.410;2023-04-15T04:18:30;10.80;99.90
68139;DHT22;54940;50.842;4.410;2023-04-15T04:20:56;10.70;99.90
68139;DHT22;54940;50.842;4.410;2023-04-15T04:23:22;10.70;99.90
68139;DHT22;54940;50.842;4.410;2023-04-15T04:25:47;10.60;99.90
68139;DHT22;54940;50.842;4.410;2023-04-15T04:28:13;10.60;99.90
68139;DHT22;54940;50.842;4.410;2023-04-15T04:30:39;10.70;99.90
68139;DHT22;54940;50.842;4.410;2023-04-15T04:33:06;10.80;99.90
68139;DHT22;54940;50.842;4.410;2023-04-15T04:35:31;10.70;99.90
68139;DHT22;54940;50.842;4.410;2023-04-15T04:37:59;10.60;99.90
68139;DHT22;54940;50.842;4.410;2023-04-15T04:40:25;10.70;99.90
68139;DHT22;54940;50.842;4.410;2023-04-15T04:42:52;10.60;99.90
68139;DHT22;54940;50.842;4.410;2023-04-15T04:45:18;10.70;99.90
68139;DHT22;54940;50.842;4.410;2023-04-15T04:47:44;10.60;99.90
68139;DHT22;54940;50.842;4.410;2023-04-15T04:50:09;10.70;99.90
68139;DHT22;54940;50.842;4.410;2023-04-15T04:52:36;10.70;99.90
68139;DHT22;54940;50.842;4.410;2023-04-15T04:55:01;10.70;99.90
68139;DHT22;54940;50.842;4.410;2023-04-15T04:57:27;10.70;99.90
68139;DHT22;54940;50.842;4.410;2023-04-15T04:59:53;10.60;99.90
68139;DHT22;54940;50.842;4.410;2023-04-15T05:02:18;10.60;99.90
68139;DHT22;54940;50.842;4.410;2023-04-15T05:04:44;10.60;99.90
68139;DHT22;54940;50.842;4.410;2023-04-15T05:07:10;10.50;99.90
68139;DHT22;54940;50.842;4.410;2023-04-15T05:09:36;10.50;99.90
68139;DHT22;54940;50.842;4.410;2023-04-15T05:12:03;10.60;99.90
68139;DHT22;54940;50.842;4.410;2023-04-15T05:14:29;10.60;99.90
68139;DHT22;54940;50.842;4.410;2023-04-15T05:16:55;10.60;99.90
68139;DHT22;54940;50.842;4.410;2023-04-15T05:19:21;10.70;99.90
68139;DHT22;54940;50.842;4.410;2023-04-15T05:21:46;10.70;99.90
68139;DHT22;54940;50.842;4.410;2023-04-15T05:24:12;10.70;99.90
68139;DHT22;54940;50.842;4.410;2023-04-15T05:26:38;10.70;99.90
68139;DHT22;54940;50.842;4.410;2023-04-15T05:29:03;10.70;99.90
68139;DHT22;54940;50.842;4.410;2023-04-15T05:31:29;10.70;99.90
68139;DHT22;54940;50.842;4.410;2023-04-15T05:33:55;10.60;99.90
68139;DHT22;54940;50.842;4.410;2023-04-15T05:36:20;10.60;99.90
68139;DHT22;54940;50.842;4.410;2023-04-15T05:38:46;10.70;99.90
68139;DHT22;54940;50.842;4.410;2023-04-15T05:41:12;10.60;99.90
68139;DHT22;54940;50.842;4.410;2023-04-15T05:43:40;10.60;99.90
68139;DHT22;54940;50.842;4.410;2023-04-15T05:46:06;10.50;99.90
68139;DHT22;54940;50.842;4.410;2023-04-15T05:48:33;10.50;99.90
68139;DHT22;54940;50.842;4.410;2023-04-15T05:50:59;10.40;99.90
68139;DHT22;54940;50.842;4.410;2023-04-15T05:53:25;10.30;99.90
68139;DHT22;54940;50.842;4.410;2023-04-15T05:55:51;10.20;99.90
68139;DHT22;54940;50.842;4.410;2023-04-15T05:58:16;10.20;99.90
68139;DHT22;54940;50.842;4.410;2023-04-15T06:00:42;10.10;99.90
68139;DHT22;54940;50.842;4.410;2023-04-15T06:03:08;10.10;99.90
68139;DHT22;54940;50.842;4.410;2023-04-15T06:05:33;10.00;99.90
68139;DHT22;54940;50.842;4.410;2023-04-15T06:07:59;9.90;99.90
68139;DHT22;54940;50.842;4.410;2023-04-15T06:10:25;9.90;99.90
68139;DHT22;54940;50.842;4.410;2023-04-15T06:12:52;9.90;99.90
68139;DHT22;54940;50.842;4.410;2023-04-15T06:15:17;10.00;99.90
68139;DHT22;54940;50.842;4.410;2023-04-15T06:17:44;10.10;99.90
68139;DHT22;54940;50.842;4.410;2023-04-15T06:20:10;10.20;99.90
68139;DHT22;54940;50.842;4.410;2023-04-15T06:22:36;10.20;99.90
68139;DHT22;54940;50.842;4.410;2023-04-15T06:25:03;10.30;99.90
68139;DHT22;54940;50.842;4.410;2023-04-15T06:27:29;10.30;99.90
68139;DHT22;54940;50.842;4.410;2023-04-15T06:29:55;10.40;99.90
68139;DHT22;54940;50.842;4.410;2023-04-15T06:32:20;10.40;99.90
68139;DHT22;54940;50.842;4.410;2023-04-15T06:34:46;10.50;99.90
68139;DHT22;54940;50.842;4.410;2023-04-15T06:37:12;10.50;99.90
68139;DHT22;54940;50.842;4.410;2023-04-15T06:39:40;10.50;99.90
68139;DHT22;54940;50.842;4.410;2023-04-15T06:42:07;10.70;99.90
68139;DHT22;54940;50.842;4.410;2023-04-15T06:44:33;10.70;99.90
68139;DHT22;54940;50.842;4.410;2023-04-15T06:46:59;10.70;99.90
68139;DHT22;54940;50.842;4.410;2023-04-15T06:49:25;10.80;99.90
68139;DHT22;54940;50.842;4.410;2023-04-15T06:51:51;10.80;99.90
68139;DHT22;54940;50.842;4.410;2023-04-15T06:54:17;10.80;99.90
68139;DHT22;54940;50.842;4.410;2023-04-15T06:56:43;10.80;99.90
68139;DHT22;54940;50.842;4.410;2023-04-15T06:59:08;10.80;99.90
68139;DHT22;54940;50.842;4.410;2023-04-15T07:01:34;10.80;99.90
68139;DHT22;54940;50.842;4.410;2023-04-15T07:04:00;10.70;99.90
68139;DHT22;54940;50.842;4.410;2023-04-15T07:06:26;10.90;99.90
68139;DHT22;54940;50.842;4.410;2023-04-15T07:08:52;10.90;99.90
68139;DHT22;54940;50.842;4.410;2023-04-15T07:11:19;11.10;99.90
68139;DHT22;54940;50.842;4.410;2023-04-15T07:13:45;11.40;99.90
68139;DHT22;54940;50.842;4.410;2023-04-15T07:16:11;11.60;99.90
68139;DHT22;54940;50.842;4.410;2023-04-15T07:18:37;11.70;99.90
68139;DHT22;54940;50.842;4.410;2023-04-15T07:21:02;11.90;99.90
68139;DHT22;54940;50.842;4.410;2023-04-15T07:23:28;12.10;99.90
68139;DHT22;54940;50.842;4.410;2023-04-15T07:25:54;12.30;99.90
68139;DHT22;54940;50.842;4.410;2023-04-15T07:28:20;12.30;99.90
68139;DHT22;54940;50.842;4.410;2023-04-15T07:30:45;12.60;99.90
68139;DHT22;54940;50.842;4.410;2023-04-15T07:33:11;12.70;99.90
68139;DHT22;54940;50.842;4.410;2023-04-15T07:35:37;12.70;99.90
68139;DHT22;54940;50.842;4.410;2023-04-15T07:38:03;12.80;99.90
68139;DHT22;54940;50.842;4.410;2023-04-15T07:40:29;13.10;99.90
68139;DHT22;54940;50.842;4.410;2023-04-15T07:42:57;13.40;99.90
68139;DHT22;54940;50.842;4.410;2023-04-15T07:45:23;13.50;99.90
68139;DHT22;54940;50.842;4.410;2023-04-15T07:47:49;13.90;99.90
68139;DHT22;54940;50.842;4.410;2023-04-15T07:50:15;14.10;99.90
68139;DHT22;54940;50.842;4.410;2023-04-15T07:52:42;14.30;99.90
68139;DHT22;54940;50.842;4.410;2023-04-15T07:55:08;13.90;99.90
68139;DHT22;54940;50.842;4.410;2023-04-15T07:57:35;14.10;99.90
68139;DHT22;54940;50.842;4.410;2023-04-15T08:00:02;13.90;99.90
68139;DHT22;54940;50.842;4.410;2023-04-15T08:02:29;14.10;99.90
68139;DHT22;54940;50.842;4.410;2023-04-15T08:04:56;14.60;99.90
68139;DHT22;54940;50.842;4.410;2023-04-15T08:07:22;14.90;99.90
68139;DHT22;54940;50.842;4.410;2023-04-15T08:09:48;14.90;99.90
68139;DHT22;54940;50.842;4.410;2023-04-15T08:12:13;15.20;99.90
68139;DHT22;54940;50.842;4.410;2023-04-15T08:14:39;15.50;99.90
68139;DHT22;54940;50.842;4.410;2023-04-15T08:17:05;15.50;99.90
68139;DHT22;54940;50.842;4.410;2023-04-15T08:19:31;15.50;99.90
68139;DHT22;54940;50.842;4.410;2023-04-15T08:21:56;15.50;99.90
68139;DHT22;54940;50.842;4.410;2023-04-15T08:24:23;15.50;99.90
68139;DHT22;54940;50.842;4.410;2023-04-15T08:26:50;15.60;99.90
68139;DHT22;54940;50.842;4.410;2023-04-15T08:29:16;15.50;99.90
68139;DHT22;54940;50.842;4.410;2023-04-15T08:31:42;15.40;99.90
68139;DHT22;54940;50.842;4.410;2023-04-15T08:34:08;15.20;99.90
68139;DHT22;54940;50.842;4.410;2023-04-15T08:36:34;15.10;99.90
68139;DHT22;54940;50.842;4.410;2023-04-15T08:38:59;15.00;99.90
68139;DHT22;54940;50.842;4.410;2023-04-15T08:41:55;15.10;99.90
68139;DHT22;54940;50.842;4.410;2023-04-15T08:44:18;15.20;99.90
68139;DHT22;54940;50.842;4.410;2023-04-15T08:46:44;15.30;99.90
68139;DHT22;54940;50.842;4.410;2023-04-15T08:49:11;15.30;99.90
68139;DHT22;54940;50.842;4.410;2023-04-15T08:51:40;15.60;99.90
68139;DHT22;54940;50.842;4.410;2023-04-15T08:54:07;15.90;99.90
68139;DHT22;54940;50.842;4.410;2023-04-15T08:56:33;16.20;99.90
68139;DHT22;54940;50.842;4.410;2023-04-15T08:59:00;16.30;99.90
68139;DHT22;54940;50.842;4.410;2023-04-15T09:01:26;16.40;99.90
68139;DHT22;54940;50.842;4.410;2023-04-15T09:03:52;16.50;99.90
68139;DHT22;54940;50.842;4.410;2023-04-15T09:06:23;16.60;99.90
68139;DHT22;54940;50.842;4.410;2023-04-15T09:08:50;16.70;99.90
68139;DHT22;54940;50.842;4.410;2023-04-15T09:11:16;16.90;99.90
68139;DHT22;54940;50.842;4.410;2023-04-15T09:13:42;17.00;99.90
68139;DHT22;54940;50.842;4.410;2023-04-15T09:16:08;17.00;99.90
68139;DHT22;54940;50.842;4.410;2023-04-15T09:18:35;17.10;99.90
68139;DHT22;54940;50.842;4.410;2023-04-15T09:21:11;17.10;99.90
68139;DHT22;54940;50.842;4.410;2023-04-15T09:23:53;17.10;99.90
68139;DHT22;54940;50.842;4.410;2023-04-15T09:26:36;17.40;99.90
68139;DHT22;54940;50.842;4.410;2023-04-15T09:29:09;17.40;99.90
68139;DHT22;54940;50.842;4.410;2023-04-15T09:31:38;17.50;99.90
68139;DHT22;54940;50.842;4.410;2023-04-15T09:34:04;17.40;99.90
68139;DHT22;54940;50.842;4.410;2023-04-15T09:36:56;17.20;99.90
68139;DHT22;54940;50.842;4.410;2023-04-15T09:39:22;17.20;99.90
68139;DHT22;54940;50.842;4.410;2023-04-15T09:42:07;17.50;99.90
68139;DHT22;54940;50.842;4.410;2023-04-15T09:44:32;17.70;99.90
68139;DHT22;54940;50.842;4.410;2023-04-15T09:46:58;17.70;99.90
68139;DHT22;54940;50.842;4.410;2023-04-15T09:49:24;17.70;99.90
68139;DHT22;54940;50.842;4.410;2023-04-15T09:51:49;17.50;99.90
68139;DHT22;54940;50.842;4.410;2023-04-15T09:54:19;17.60;99.90
68139;DHT22;54940;50.842;4.410;2023-04-15T09:56:46;17.80;99.90
68139;DHT22;54940;50.842;4.410;2023-04-15T09:59:12;17.60;99.90
68139;DHT22;54940;50.842;4.410;2023-04-15T10:01:40;17.60;99.90
68139;DHT22;54940;50.842;4.410;2023-04-15T10:04:08;17.60;99.90
68139;DHT22;54940;50.842;4.410;2023-04-15T10:06:34;17.60;99.90
68139;DHT22;54940;50.842;4.410;2023-04-15T10:09:00;17.60;99.90
68139;DHT22;54940;50.842;4.410;2023-04-15T10:11:28;17.60;99.90
68139;DHT22;54940;50.842;4.410;2023-04-15T10:13:55;17.60;99.90
68139;DHT22;54940;50.842;4.410;2023-04-15T10:16:22;17.70;99.90
68139;DHT22;54940;50.842;4.410;2023-04-15T10:18:54;18.00;99.90
68139;DHT22;54940;50.842;4.410;2023-04-15T10:21:20;18.20;99.90
68139;DHT22;54940;50.842;4.410;2023-04-15T10:23:48;18.50;99.90
68139;DHT22;54940;50.842;4.410;2023-04-15T10:26:15;18.40;99.90
68139;DHT22;54940;50.842;4.410;2023-04-15T10:28:44;18.70;99.90
68139;DHT22;54940;50.842;4.410;2023-04-15T10:31:14;18.30;99.90
68139;DHT22;54940;50.842;4.410;2023-04-15T10:33:41;18.50;99.90
68139;DHT22;54940;50.842;4.410;2023-04-15T10:36:07;18.60;99.90
68139;DHT22;54940;50.842;4.410;2023-04-15T10:38:43;19.00;99.90
68139;DHT22;54940;50.842;4.410;2023-04-15T10:41:15;19.10;99.90
68139;DHT22;54940;50.842;4.410;2023-04-15T10:44:01;18.90;99.90
68139;DHT22;54940;50.842;4.410;2023-04-15T10:46:35;18.80;99.90
68139;DHT22;54940;50.842;4.410;2023-04-15T10:51:40;18.70;99.90
68139;DHT22;54940;50.842;4.410;2023-04-15T10:54:31;18.60;99.90
68139;DHT22;54940;50.842;4.410;2023-04-15T10:59:32;19.10;99.90
68139;DHT22;54940;50.842;4.410;2023-04-15T11:02:03;19.20;99.90
68139;DHT22;54940;50.842;4.410;2023-04-15T11:04:51;19.10;99.70
68139;DHT22;54940;50.842;4.410;2023-04-15T11:07:46;19.40;98.00
68139;DHT22;54940;50.842;4.410;2023-04-15T11:12:57;19.40;93.10
68139;DHT22;54940;50.842;4.410;2023-04-15T11:15:40;19.40;95.10
68139;DHT22;54940;50.842;4.410;2023-04-15T11:18:12;19.50;93.10
68139;DHT22;54940;50.842;4.410;2023-04-15T11:20:39;19.40;93.70
68139;DHT22;54940;50.842;4.410;2023-04-15T11:23:05;19.60;95.60
68139;DHT22;54940;50.842;4.410;2023-04-15T11:25:33;19.60;92.00
68139;DHT22;54940;50.842;4.410;2023-04-15T11:28:00;19.80;93.90
68139;DHT22;54940;50.842;4.410;2023-04-15T11:30:28;19.80;92.50
68139;DHT22;54940;50.842;4.410;2023-04-15T11:33:02;19.70;92.20
68139;DHT22;54940;50.842;4.410;2023-04-15T11:35:29;20.00;92.30
68139;DHT22;54940;50.842;4.410;2023-04-15T11:37:54;20.10;92.60
68139;DHT22;54940;50.842;4.410;2023-04-15T11:40:26;20.00;92.00
68139;DHT22;54940;50.842;4.410;2023-04-15T11:45:35;20.10;93.50
68139;DHT22;54940;50.842;4.410;2023-04-15T11:48:11;20.20;92.30
68139;DHT22;54940;50.842;4.410;2023-04-15T11:50:38;20.40;89.10
68139;DHT22;54940;50.842;4.410;2023-04-15T11:53:12;20.00;83.90
68139;DHT22;54940;50.842;4.410;2023-04-15T11:55:45;19.50;80.20
68139;DHT22;54940;50.842;4.410;2023-04-15T11:58:16;19.40;80.70
68139;DHT22;54940;50.842;4.410;2023-04-15T12:00:51;19.10;81.20
68139;DHT22;54940;50.842;4.410;2023-04-15T12:03:24;19.30;86.50
68139;DHT22;54940;50.842;4.410;2023-04-15T12:13:54;19.70;87.90
68139;DHT22;54940;50.842;4.410;2023-04-15T12:16:22;19.80;82.30
68139;DHT22;54940;50.842;4.410;2023-04-15T12:18:52;19.40;88.70
68139;DHT22;54940;50.842;4.410;2023-04-15T12:21:20;19.40;89.10
68139;DHT22;54940;50.842;4.410;2023-04-15T12:23:50;19.70;83.60
68139;DHT22;54940;50.842;4.410;2023-04-15T12:26:17;19.80;82.60
68139;DHT22;54940;50.842;4.410;2023-04-15T12:28:43;19.70;84.20
68139;DHT22;54940;50.842;4.410;2023-04-15T12:31:10;19.60;83.10
68139;DHT22;54940;50.842;4.410;2023-04-15T12:33:36;19.60;83.20
68139;DHT22;54940;50.842;4.410;2023-04-15T12:36:02;19.70;86.20
68139;DHT22;54940;50.842;4.410;2023-04-15T12:38:29;20.00;85.90
68139;DHT22;54940;50.842;4.410;2023-04-15T12:40:56;19.60;77.40
68139;DHT22;54940;50.842;4.410;2023-04-15T12:43:22;19.80;84.60
68139;DHT22;54940;50.842;4.410;2023-04-15T12:45:47;19.90;82.60
68139;DHT22;54940;50.842;4.410;2023-04-15T12:48:13;19.90;79.60
68139;DHT22;54940;50.842;4.410;2023-04-15T12:50:38;19.80;74.20
68139;DHT22;54940;50.842;4.410;2023-04-15T12:53:04;19.70;77.10
68139;DHT22;54940;50.842;4.410;2023-04-15T12:55:30;19.60;79.40
68139;DHT22;54940;50.842;4.410;2023-04-15T12:57:56;19.80;81.20
68139;DHT22;54940;50.842;4.410;2023-04-15T13:00:22;19.70;78.70
68139;DHT22;54940;50.842;4.410;2023-04-15T13:02:48;19.40;76.20
68139;DHT22;54940;50.842;4.410;2023-04-15T13:05:14;19.50;76.00
68139;DHT22;54940;50.842;4.410;2023-04-15T13:07:40;19.40;83.50
68139;DHT22;54940;50.842;4.410;2023-04-15T13:10:07;19.60;83.60
68139;DHT22;54940;50.842;4.410;2023-04-15T13:12:33;19.70;78.80
68139;DHT22;54940;50.842;4.410;2023-04-15T13:15:05;19.70;79.00
68139;DHT22;54940;50.842;4.410;2023-04-15T13:17:30;19.50;78.60
68139;DHT22;54940;50.842;4.410;2023-04-15T13:19:56;19.30;82.40
68139;DHT22;54940;50.842;4.410;2023-04-15T13:22:22;19.50;82.00
68139;DHT22;54940;50.842;4.410;2023-04-15T13:24:47;19.60;77.00
68139;DHT22;54940;50.842;4.410;2023-04-15T13:27:14;19.30;74.60
68139;DHT22;54940;50.842;4.410;2023-04-15T13:29:39;19.40;79.30
68139;DHT22;54940;50.842;4.410;2023-04-15T13:32:05;19.80;82.80
68139;DHT22;54940;50.842;4.410;2023-04-15T13:34:31;19.90;80.60
68139;DHT22;54940;50.842;4.410;2023-04-15T13:36:57;20.20;82.90
68139;DHT22;54940;50.842;4.410;2023-04-15T13:39:22;20.10;77.60
68139;DHT22;54940;50.842;4.410;2023-04-15T13:41:48;19.90;79.70
68139;DHT22;54940;50.842;4.410;2023-04-15T13:44:14;20.00;76.70
68139;DHT22;54940;50.842;4.410;2023-04-15T13:46:40;19.80;78.10
68139;DHT22;54940;50.842;4.410;2023-04-15T13:49:07;19.70;78.40
68139;DHT22;54940;50.842;4.410;2023-04-15T13:51:32;20.00;82.00
68139;DHT22;54940;50.842;4.410;2023-04-15T13:54:00;20.40;82.50
68139;DHT22;54940;50.842;4.410;2023-04-15T13:56:26;20.50;75.80
68139;DHT22;54940;50.842;4.410;2023-04-15T13:58:51;20.20;77.90
68139;DHT22;54940;50.842;4.410;2023-04-15T14:01:19;19.70;73.60
68139;DHT22;54940;50.842;4.410;2023-04-15T14:03:44;19.70;78.40
68139;DHT22;54940;50.842;4.410;2023-04-15T14:06:10;20.10;81.40
68139;DHT22;54940;50.842;4.410;2023-04-15T14:08:36;20.50;78.00
68139;DHT22;54940;50.842;4.410;2023-04-15T14:11:01;20.20;75.70
68139;DHT22;54940;50.842;4.410;2023-04-15T14:13:27;20.10;79.00
68139;DHT22;54940;50.842;4.410;2023-04-15T14:15:53;20.20;76.00
68139;DHT22;54940;50.842;4.410;2023-04-15T14:18:19;20.30;78.50
68139;DHT22;54940;50.842;4.410;2023-04-15T14:20:45;20.20;77.50
68139;DHT22;54940;50.842;4.410;2023-04-15T14:23:10;20.40;78.60
68139;DHT22;54940;50.842;4.410;2023-04-15T14:25:36;20.70;80.30
68139;DHT22;54940;50.842;4.410;2023-04-15T14:28:03;20.70;79.20
68139;DHT22;54940;50.842;4.410;2023-04-15T14:30:29;20.60;80.10
68139;DHT22;54940;50.842;4.410;2023-04-15T14:32:55;20.70;78.40
68139;DHT22;54940;50.842;4.410;2023-04-15T14:35:20;21.00;79.40
68139;DHT22;54940;50.842;4.410;2023-04-15T14:37:46;21.00;74.70
68139;DHT22;54940;50.842;4.410;2023-04-15T14:40:12;20.60;76.40
68139;DHT22;54940;50.842;4.410;2023-04-15T14:42:37;20.60;74.70
68139;DHT22;54940;50.842;4.410;2023-04-15T14:45:03;20.90;79.50
68139;DHT22;54940;50.842;4.410;2023-04-15T14:47:30;20.80;73.70
68139;DHT22;54940;50.842;4.410;2023-04-15T14:49:55;20.40;75.80
68139;DHT22;54940;50.842;4.410;2023-04-15T14:52:21;19.90;78.30
68139;DHT22;54940;50.842;4.410;2023-04-15T14:54:47;19.80;79.10
68139;DHT22;54940;50.842;4.410;2023-04-15T14:57:13;19.80;82.00
68139;DHT22;54940;50.842;4.410;2023-04-15T14:59:38;20.10;79.80
68139;DHT22;54940;50.842;4.410;2023-04-15T15:02:04;20.10;81.30
68139;DHT22;54940;50.842;4.410;2023-04-15T15:04:30;20.10;82.40
68139;DHT22;54940;50.842;4.410;2023-04-15T15:06:57;20.30;84.80
68139;DHT22;54940;50.842;4.410;2023-04-15T15:09:23;20.80;80.70
68139;DHT22;54940;50.842;4.410;2023-04-15T15:11:49;20.50;78.10
68139;DHT22;54940;50.842;4.410;2023-04-15T15:14:15;20.20;79.30
68139;DHT22;54940;50.842;4.410;2023-04-15T15:16:41;19.80;80.80
68139;DHT22;54940;50.842;4.410;2023-04-15T15:19:07;20.20;81.80
68139;DHT22;54940;50.842;4.410;2023-04-15T15:21:33;20.00;79.60
68139;DHT22;54940;50.842;4.410;2023-04-15T15:23:58;19.90;79.40
68139;DHT22;54940;50.842;4.410;2023-04-15T15:26:24;19.70;82.60
68139;DHT22;54940;50.842;4.410;2023-04-15T15:28:52;19.80;83.50
68139;DHT22;54940;50.842;4.410;2023-04-15T15:31:18;19.40;83.20
68139;DHT22;54940;50.842;4.410;2023-04-15T15:33:43;19.10;83.20
68139;DHT22;54940;50.842;4.410;2023-04-15T15:36:09;18.70;83.60
68139;DHT22;54940;50.842;4.410;2023-04-15T15:38:35;18.40;86.40
68139;DHT22;54940;50.842;4.410;2023-04-15T15:41:01;18.40;86.50
68139;DHT22;54940;50.842;4.410;2023-04-15T15:43:27;18.40;86.10
68139;DHT22;54940;50.842;4.410;2023-04-15T15:45:56;18.20;87.50